Hook, United Kingdom
Current Conditions -  °F | °C
As of 3:50 AM on Friday 21 Nov 2014 (Local Time) from EGVO Reporting Station
Haze Haze  
Wind Chill: 39°   Ceiling: 800
Heat Index: 43°   Visibility: 2.3mi
Dew Point: 43°   Wind: 7mph
Humidity: 100%   Direction: 60°ENE
Pressure: 30.12"   Gusts: NA
Location:  51.28°N, 0.96°W
Report Text: EGVO 210350Z 06006KT 3700 HZ BKN008 06/06 Q1020 GRN
Loading
Personal Weather Stations






























Interactive Weather Map New forecast layout! Learn more

10-Day Weather Forecast

Advertisements
Track Severe Weather on mobile